createdAt,value
2022-10-14T00:05:12.139Z,101516.50
2022-10-14T00:10:38.486Z,101521.78
2022-10-14T00:16:01.967Z,101514.91
2022-10-14T00:21:26.623Z,101509.88
2022-10-14T00:26:49.802Z,101507.31
2022-10-14T00:32:13.553Z,101501.22
2022-10-14T00:37:37.973Z,101496.09
2022-10-14T00:43:01.089Z,101486.50
2022-10-14T00:48:25.845Z,101476.16
2022-10-14T00:53:52.901Z,101467.63
2022-10-14T00:59:16.665Z,101453.88
2022-10-14T01:04:41.199Z,101451.34
2022-10-14T01:10:10.695Z,101453.22
2022-10-14T01:15:38.722Z,101456.69
2022-10-14T01:21:09.291Z,101454.16
2022-10-14T01:26:53.059Z,101453.13
2022-10-14T01:32:22.448Z,101454.75
2022-10-14T01:37:50.023Z,101451.38
2022-10-14T01:43:14.280Z,101449.47
2022-10-14T01:48:40.396Z,101454.69
2022-10-14T01:54:06.590Z,101445.94
2022-10-14T01:59:30.553Z,101441.63
2022-10-14T02:04:55.028Z,101439.72
2022-10-14T02:10:25.602Z,101432.81
2022-10-14T02:15:59.459Z,101420.66
2022-10-14T02:21:31.415Z,101431.88
2022-10-14T02:26:59.943Z,101431.09
2022-10-14T02:32:24.378Z,101431.88
2022-10-14T02:37:49.649Z,101406.69
2022-10-14T02:43:13.147Z,101409.34
2022-10-14T02:48:36.218Z,101397.13
2022-10-14T02:54:02.276Z,101400.63
2022-10-14T02:59:25.671Z,101405.00
2022-10-14T03:04:48.685Z,101403.31
2022-10-14T03:10:13.170Z,101400.63
2022-10-14T03:15:37.405Z,101397.94
2022-10-14T03:21:01.949Z,101388.19
2022-10-14T03:26:32.513Z,101385.53
2022-10-14T03:31:55.811Z,101375.16
2022-10-14T03:37:26.419Z,101361.34
2022-10-14T03:42:53.820Z,101359.53
2022-10-14T03:48:18.602Z,101354.19
2022-10-14T03:53:41.861Z,101350.53
2022-10-14T03:59:08.056Z,101345.09
2022-10-14T04:04:32.997Z,101337.94
2022-10-14T04:09:56.935Z,101340.41
2022-10-14T04:15:22.697Z,101337.63
2022-10-14T04:21:06.561Z,101332.38
2022-10-14T04:26:30.078Z,101321.94
2022-10-14T04:31:55.669Z,101327.06
2022-10-14T04:37:19.515Z,101315.69
2022-10-14T04:42:49.963Z,101306.16
2022-10-14T04:48:20.166Z,101293.81
2022-10-14T04:53:43.545Z,101290.25
2022-10-14T04:59:26.940Z,101288.47
2022-10-14T05:05:10.654Z,101280.69
2022-10-14T05:10:37.274Z,101272.69
2022-10-14T05:16:04.561Z,101269.03
2022-10-14T05:21:30.246Z,101253.28
2022-10-14T05:27:07.472Z,101233.59
2022-10-14T05:32:31.419Z,101244.59
2022-10-14T05:38:04.240Z,101232.34
2022-10-14T05:43:33.089Z,101226.09
2022-10-14T05:49:00.317Z,101226.09
2022-10-14T05:54:25.176Z,101219.94
2022-10-14T05:59:50.926Z,101220.00
2022-10-14T06:05:14.219Z,101218.22
2022-10-14T06:10:39.344Z,101219.06
2022-10-14T06:16:05.723Z,101199.69
2022-10-14T06:21:28.904Z,101192.91
2022-10-14T06:26:53.335Z,101198.91
2022-10-14T06:32:16.474Z,101200.84
2022-10-14T06:37:39.771Z,101198.03
2022-10-14T06:43:04.507Z,101184.06
2022-10-14T06:48:27.721Z,101179.69
2022-10-14T06:53:50.878Z,101178.75
2022-10-14T06:59:15.439Z,101177.69
2022-10-14T07:04:39.907Z,101177.41
2022-10-14T07:10:05.199Z,101166.84
2022-10-14T07:15:38.825Z,101168.50
2022-10-14T07:21:03.609Z,101156.97
2022-10-14T07:26:26.773Z,101164.16
2022-10-14T07:31:51.229Z,101152.47
2022-10-14T07:37:14.380Z,101152.19
2022-10-14T07:42:37.510Z,101144.13
2022-10-14T07:48:02.018Z,101155.19
2022-10-14T07:53:28.620Z,101162.25
2022-10-14T07:58:52.559Z,101154.28
2022-10-14T08:04:17.215Z,101145.47
2022-10-14T08:09:40.383Z,101137.59
2022-10-14T08:15:03.685Z,101135.91
2022-10-14T08:20:28.147Z,101137.63
2022-10-14T08:25:56.076Z,101139.13
2022-10-14T08:31:19.393Z,101121.06
2022-10-14T08:36:43.936Z,101123.50
2022-10-14T08:42:19.396Z,101137.59
2022-10-14T08:47:45.653Z,101127.84
2022-10-14T08:53:13.686Z,101131.84
2022-10-14T08:58:39.025Z,101116.41
2022-10-14T09:04:04.807Z,101116.56
2022-10-14T09:09:33.416Z,101107.56
2022-10-14T09:15:05.306Z,101092.09
2022-10-14T09:20:28.429Z,101103.97
2022-10-14T09:25:57.441Z,101101.81
2022-10-14T09:31:20.603Z,101084.97
2022-10-14T09:36:43.792Z,101084.50
2022-10-14T09:42:15.767Z,101082.50
2022-10-14T09:47:52.656Z,101090.56
2022-10-14T09:53:19.175Z,101081.31
2022-10-14T09:58:46.904Z,101072.41
2022-10-14T10:04:25.967Z,101065.69
2022-10-14T10:09:55.364Z,101066.53
2022-10-14T10:15:22.262Z,101065.69
2022-10-14T10:21:02.269Z,101056.09
2022-10-14T10:26:29.368Z,101054.50
2022-10-14T10:32:13.511Z,101049.06
2022-10-14T10:37:45.030Z,101049.81
2022-10-14T10:43:19.965Z,101040.69
2022-10-14T10:48:50.180Z,101039.84
2022-10-14T10:54:22.524Z,101019.72
2022-10-14T10:59:52.740Z,101020.06
2022-10-14T11:05:19.682Z,101021.41
2022-10-14T11:11:09.295Z,101010.22
2022-10-14T11:16:39.212Z,100989.00
2022-10-14T11:22:09.244Z,100985.56
2022-10-14T11:27:37.495Z,100983.69
2022-10-14T11:33:09.220Z,100976.09
2022-10-14T11:38:45.384Z,100964.19
2022-10-14T11:44:14.236Z,100959.47
2022-10-14T11:49:44.150Z,100944.84
2022-10-14T11:55:14.645Z,100935.78
2022-10-14T12:00:38.339Z,100914.19
2022-10-14T12:06:05.619Z,100925.03
2022-10-14T12:11:35.076Z,100916.28
2022-10-14T12:17:00.005Z,100909.69
2022-10-14T12:22:25.619Z,100897.53
2022-10-14T12:27:50.757Z,100895.56
2022-10-14T12:33:22.310Z,100894.19
2022-10-14T12:39:22.564Z,100888.91
2022-10-14T12:44:51.977Z,100881.88
2022-10-14T12:50:28.810Z,100892.16
2022-10-14T12:55:54.026Z,100896.59
2022-10-14T13:01:21.799Z,100888.34
2022-10-14T13:06:45.292Z,100896.19
2022-10-14T13:12:42.805Z,100883.22
2022-10-14T13:18:36.193Z,100880.59
2022-10-14T13:24:01.714Z,100869.84
2022-10-14T13:29:29.585Z,100869.56
2022-10-14T13:34:58.788Z,100880.66
2022-10-14T13:40:26.283Z,100872.38
2022-10-14T13:45:54.398Z,100877.66
2022-10-14T13:51:42.633Z,100885.31
2022-10-14T14:02:57.702Z,100868.00
2022-10-14T14:08:43.174Z,100877.34
2022-10-14T14:14:09.745Z,100875.66
2022-10-14T14:19:35.482Z,100868.53
2022-10-14T14:25:33.509Z,100857.88
2022-10-14T14:30:56.759Z,100850.44
2022-10-14T14:36:27.545Z,100848.75
2022-10-14T14:41:59.915Z,100850.16
2022-10-14T14:47:23.309Z,100845.81
2022-10-14T14:52:48.205Z,100856.03
2022-10-14T14:58:31.105Z,100851.78
2022-10-14T15:04:12.099Z,100857.88
2022-10-14T15:09:39.594Z,100855.13
2022-10-14T15:15:06.128Z,100849.53
2022-10-14T15:20:52.139Z,100847.03
2022-10-14T15:26:29.638Z,100834.88
2022-10-14T15:32:07.851Z,100825.19
2022-10-14T15:37:32.868Z,100813.13
2022-10-14T15:42:56.001Z,100817.66
2022-10-14T15:48:21.080Z,100816.16
2022-10-14T15:53:44.174Z,100804.66
2022-10-14T15:59:07.494Z,100794.13
2022-10-14T16:04:32.154Z,100800.91
2022-10-14T16:09:56.275Z,100789.84
2022-10-14T16:15:32.796Z,100797.53
2022-10-14T16:20:57.244Z,100796.69
2022-10-14T16:26:20.607Z,100795.63
2022-10-14T16:31:43.767Z,100785.06
2022-10-14T16:37:09.834Z,100791.16
2022-10-14T16:42:32.889Z,100784.66
2022-10-14T16:47:55.952Z,100796.09
2022-10-14T16:53:38.516Z,100789.31
2022-10-14T16:59:02.171Z,100807.13
2022-10-14T17:04:25.522Z,100804.94
2022-10-14T17:09:55.679Z,100805.06
2022-10-14T17:15:18.844Z,100799.31
2022-10-14T17:20:41.886Z,100804.56
2022-10-14T17:26:06.868Z,100803.63
2022-10-14T17:31:30.270Z,100802.03
2022-10-14T17:36:53.315Z,100804.00
2022-10-14T17:42:17.819Z,100800.53
2022-10-14T17:47:43.293Z,100799.78
2022-10-14T17:53:06.402Z,100801.72
2022-10-14T17:58:30.990Z,100798.44
2022-10-14T18:03:55.515Z,100781.75
2022-10-14T18:09:18.530Z,100786.28
2022-10-14T18:14:43.271Z,100794.25
2022-10-14T18:20:07.477Z,100793.34
2022-10-14T18:25:31.388Z,100788.19
2022-10-14T18:30:55.778Z,100790.78
2022-10-14T18:36:22.775Z,100779.03
2022-10-14T18:41:45.850Z,100784.22
2022-10-14T18:47:10.450Z,100779.88
2022-10-14T18:52:33.752Z,100782.56
2022-10-14T18:57:56.837Z,100785.38
2022-10-14T19:03:21.304Z,100786.53
2022-10-14T19:08:45.563Z,100785.19
2022-10-14T19:14:09.843Z,100792.47
2022-10-14T19:19:34.340Z,100773.19
2022-10-14T19:24:57.773Z,100775.09
2022-10-14T19:30:20.908Z,100765.22
2022-10-14T19:35:45.290Z,100761.13
2022-10-14T19:41:09.409Z,100770.97
2022-10-14T19:46:32.440Z,100764.84
2022-10-14T19:51:56.812Z,100753.78
2022-10-14T19:57:20.062Z,100760.53
2022-10-14T20:02:43.329Z,100767.19
2022-10-14T20:08:07.888Z,100716.31
2022-10-14T20:13:31.458Z,100740.56
2022-10-14T20:18:54.541Z,100740.56
2022-10-14T20:24:19.079Z,100750.16
2022-10-14T20:29:42.193Z,100737.19
2022-10-14T20:35:09.525Z,100740.50
2022-10-14T20:40:36.547Z,100718.84
2022-10-14T20:45:59.711Z,100739.00
2022-10-14T20:51:23.532Z,100738.94
2022-10-14T20:56:49.004Z,100734.84
2022-10-14T21:02:16.712Z,100729.25
2022-10-14T21:07:39.748Z,100730.91
2022-10-14T21:13:04.193Z,100737.41
2022-10-14T21:18:27.694Z,100730.41
2022-10-14T21:23:51.055Z,100737.41
2022-10-14T21:29:15.506Z,100734.31
2022-10-14T21:34:38.622Z,100729.53
2022-10-14T21:40:01.703Z,100728.44
2022-10-14T21:45:26.240Z,100732.50
2022-10-14T21:50:49.567Z,100719.28
2022-10-14T21:56:13.801Z,100715.31
2022-10-14T22:01:38.241Z,100714.13
2022-10-14T22:07:01.608Z,100713.22
2022-10-14T22:12:25.363Z,100709.78
2022-10-14T22:17:49.787Z,100706.03
2022-10-14T22:23:12.873Z,100708.56
2022-10-14T22:28:36.550Z,100709.38
2022-10-14T22:34:01.501Z,100699.97
2022-10-14T22:39:24.629Z,100695.59
2022-10-14T22:44:47.689Z,100679.81
2022-10-14T22:50:12.273Z,100687.84
2022-10-14T22:55:35.262Z,100681.53
2022-10-14T23:00:58.370Z,100663.03
2022-10-14T23:06:22.775Z,100665.59
2022-10-14T23:11:46.048Z,100674.66
2022-10-14T23:17:09.133Z,100665.78
2022-10-14T23:22:35.694Z,100660.25
2022-10-14T23:27:58.752Z,100673.66
2022-10-14T23:33:22.366Z,100662.72
2022-10-14T23:38:47.416Z,100665.75
2022-10-14T23:44:11.454Z,100662.25
2022-10-14T23:49:34.594Z,100660.59
2022-10-14T23:54:58.947Z,100660.81
